Terminal Aerodrome Forecast
Issued by NWS Sioux Falls, SD

Home | Current Version | Previous Version | Text Only | Print | Product List | Glossary On
Versions: 1 2 3 4 5 6 7 8 9 10 11 12 13 14 15 16 17 18 19 20 21 22 23 24 25
000
FTUS43 KFSD 020520
TAFSUX
TAF
KSUX 020520Z 0206/0306 32008KT P6SM VCSH OVC100
     FM021200 32010KT P6SM SKC
     FM021700 33017G25KT P6SM SCT200
     FM030100 33012KT P6SM BKN100=

USA.gov is the U.S. government's official web portal to all federal, state and local government web resources and services.